sensor_id;sensor_type;location;lat;lon;timestamp;pressure;altitude;pressure_sealevel;temperature;humidity
61645;BME280;47553;52.428;13.382;2022-09-13T00:01:30;100721.75;;;12.95;100.00
61645;BME280;47553;52.428;13.382;2022-09-13T00:03:32;100716.94;;;12.87;100.00
61645;BME280;47553;52.428;13.382;2022-09-13T00:05:35;100713.84;;;12.93;100.00
61645;BME280;47553;52.428;13.382;2022-09-13T00:07:38;100706.56;;;12.95;100.00
61645;BME280;47553;52.428;13.382;2022-09-13T00:09:39;100710.50;;;12.90;100.00
61645;BME280;47553;52.428;13.382;2022-09-13T00:11:41;100709.56;;;12.91;100.00
61645;BME280;47553;52.428;13.382;2022-09-13T00:13:42;100703.44;;;12.89;100.00
61645;BME280;47553;52.428;13.382;2022-09-13T00:15:45;100703.34;;;12.90;100.00
61645;BME280;47553;52.428;13.382;2022-09-13T00:17:47;100704.41;;;12.88;100.00
61645;BME280;47553;52.428;13.382;2022-09-13T00:19:48;100691.78;;;12.90;100.00
61645;BME280;47553;52.428;13.382;2022-09-13T00:21:50;100691.88;;;12.88;100.00
61645;BME280;47553;52.428;13.382;2022-09-13T00:23:53;100686.94;;;12.82;100.00
61645;BME280;47553;52.428;13.382;2022-09-13T00:26:02;100693.47;;;12.78;100.00
61645;BME280;47553;52.428;13.382;2022-09-13T00:28:04;100687.69;;;12.84;100.00
61645;BME280;47553;52.428;13.382;2022-09-13T00:30:07;100689.19;;;12.88;100.00
61645;BME280;47553;52.428;13.382;2022-09-13T00:32:09;100681.06;;;12.90;100.00
61645;BME280;47553;52.428;13.382;2022-09-13T00:34:10;100670.69;;;12.85;100.00
61645;BME280;47553;52.428;13.382;2022-09-13T00:36:12;100665.75;;;12.79;100.00
61645;BME280;47553;52.428;13.382;2022-09-13T00:38:14;100666.06;;;12.75;100.00
61645;BME280;47553;52.428;13.382;2022-09-13T00:40:17;100659.63;;;12.77;100.00
61645;BME280;47553;52.428;13.382;2022-09-13T00:42:24;100645.50;;;12.75;100.00
61645;BME280;47553;52.428;13.382;2022-09-13T00:44:47;100639.72;;;12.81;100.00
61645;BME280;47553;52.428;13.382;2022-09-13T00:46:51;100636.09;;;12.82;100.00
61645;BME280;47553;52.428;13.382;2022-09-13T00:48:56;100636.53;;;12.76;100.00
61645;BME280;47553;52.428;13.382;2022-09-13T00:51:00;100627.75;;;12.74;100.00
61645;BME280;47553;52.428;13.382;2022-09-13T00:53:05;100623.25;;;12.75;100.00
61645;BME280;47553;52.428;13.382;2022-09-13T00:55:10;100619.16;;;12.69;100.00
61645;BME280;47553;52.428;13.382;2022-09-13T00:57:17;100624.72;;;12.66;100.00
61645;BME280;47553;52.428;13.382;2022-09-13T00:59:28;100621.63;;;12.72;100.00
61645;BME280;47553;52.428;13.382;2022-09-13T01:01:35;100608.03;;;12.62;100.00
61645;BME280;47553;52.428;13.382;2022-09-13T01:03:39;100615.94;;;12.64;100.00
61645;BME280;47553;52.428;13.382;2022-09-13T01:05:46;100615.53;;;12.70;100.00
61645;BME280;47553;52.428;13.382;2022-09-13T01:07:49;100594.75;;;12.61;100.00
61645;BME280;47553;52.428;13.382;2022-09-13T01:09:52;100613.81;;;12.69;100.00
61645;BME280;47553;52.428;13.382;2022-09-13T01:11:58;100610.19;;;12.70;100.00
61645;BME280;47553;52.428;13.382;2022-09-13T01:14:04;100610.19;;;12.70;100.00
61645;BME280;47553;52.428;13.382;2022-09-13T01:16:07;100610.38;;;12.67;100.00
61645;BME280;47553;52.428;13.382;2022-09-13T01:18:09;100605.91;;;12.67;100.00
61645;BME280;47553;52.428;13.382;2022-09-13T01:20:12;100597.00;;;12.67;100.00
61645;BME280;47553;52.428;13.382;2022-09-13T01:24:54;100591.34;;;12.59;100.00
61645;BME280;47553;52.428;13.382;2022-09-13T01:27:24;100595.50;;;12.63;100.00
61645;BME280;47553;52.428;13.382;2022-09-13T01:30:00;100599.34;;;12.59;100.00
61645;BME280;47553;52.428;13.382;2022-09-13T01:32:09;100601.16;;;12.46;100.00
61645;BME280;47553;52.428;13.382;2022-09-13T01:34:25;100615.59;;;12.43;100.00
61645;BME280;47553;52.428;13.382;2022-09-13T01:36:42;100613.25;;;12.39;100.00
61645;BME280;47553;52.428;13.382;2022-09-13T01:38:54;100610.56;;;12.39;100.00
61645;BME280;47553;52.428;13.382;2022-09-13T01:41:06;100587.69;;;12.47;100.00
61645;BME280;47553;52.428;13.382;2022-09-13T01:43:26;100588.53;;;12.48;100.00
61645;BME280;47553;52.428;13.382;2022-09-13T01:45:38;100596.03;;;12.43;100.00
61645;BME280;47553;52.428;13.382;2022-09-13T01:47:48;100596.81;;;12.30;100.00
61645;BME280;47553;52.428;13.382;2022-09-13T01:49:58;100590.81;;;12.27;100.00
61645;BME280;47553;52.428;13.382;2022-09-13T01:52:09;100592.31;;;12.31;100.00
61645;BME280;47553;52.428;13.382;2022-09-13T01:54:16;100579.81;;;12.31;100.00
61645;BME280;47553;52.428;13.382;2022-09-13T01:56:22;100582.91;;;12.25;100.00
61645;BME280;47553;52.428;13.382;2022-09-13T01:58:30;100585.78;;;12.22;100.00
61645;BME280;47553;52.428;13.382;2022-09-13T02:00:40;100575.47;;;12.16;100.00
61645;BME280;47553;52.428;13.382;2022-09-13T02:02:47;100575.41;;;12.18;100.00
61645;BME280;47553;52.428;13.382;2022-09-13T02:04:53;100565.56;;;12.18;100.00
61645;BME280;47553;52.428;13.382;2022-09-13T02:07:06;100561.06;;;12.19;100.00
61645;BME280;47553;52.428;13.382;2022-09-13T02:09:12;100565.94;;;12.12;100.00
61645;BME280;47553;52.428;13.382;2022-09-13T02:11:21;100562.63;;;12.09;100.00
61645;BME280;47553;52.428;13.382;2022-09-13T02:13:27;100567.31;;;12.05;100.00
61645;BME280;47553;52.428;13.382;2022-09-13T02:15:36;100565.50;;;12.05;100.00
61645;BME280;47553;52.428;13.382;2022-09-13T02:17:43;100545.50;;;12.11;100.00
61645;BME280;47553;52.428;13.382;2022-09-13T02:19:48;100554.50;;;12.10;100.00
61645;BME280;47553;52.428;13.382;2022-09-13T02:21:55;100549.25;;;12.09;100.00
61645;BME280;47553;52.428;13.382;2022-09-13T02:24:01;100557.38;;;12.07;100.00
61645;BME280;47553;52.428;13.382;2022-09-13T02:26:05;100553.75;;;12.08;100.00
61645;BME280;47553;52.428;13.382;2022-09-13T02:28:10;100550.31;;;12.06;100.00
61645;BME280;47553;52.428;13.382;2022-09-13T02:30:13;100549.00;;;11.99;100.00
61645;BME280;47553;52.428;13.382;2022-09-13T02:32:20;100536.94;;;12.06;100.00
61645;BME280;47553;52.428;13.382;2022-09-13T02:34:26;100532.03;;;12.13;100.00
61645;BME280;47553;52.428;13.382;2022-09-13T02:36:34;100523.06;;;12.14;100.00
61645;BME280;47553;52.428;13.382;2022-09-13T02:38:41;100524.78;;;12.15;100.00
61645;BME280;47553;52.428;13.382;2022-09-13T02:40:48;100517.44;;;12.18;100.00
61645;BME280;47553;52.428;13.382;2022-09-13T02:42:56;100523.13;;;12.26;100.00
61645;BME280;47553;52.428;13.382;2022-09-13T02:44:59;100519.59;;;12.26;100.00
61645;BME280;47553;52.428;13.382;2022-09-13T02:47:10;100514.66;;;12.32;100.00
61645;BME280;47553;52.428;13.382;2022-09-13T02:49:16;100503.97;;;12.32;100.00
61645;BME280;47553;52.428;13.382;2022-09-13T02:51:29;100507.41;;;12.34;100.00
61645;BME280;47553;52.428;13.382;2022-09-13T02:53:37;100507.72;;;12.30;100.00
61645;BME280;47553;52.428;13.382;2022-09-13T02:55:43;100506.44;;;12.23;100.00
61645;BME280;47553;52.428;13.382;2022-09-13T02:57:59;100515.75;;;12.30;100.00
61645;BME280;47553;52.428;13.382;2022-09-13T03:00:03;100513.38;;;12.25;100.00
61645;BME280;47553;52.428;13.382;2022-09-13T03:02:08;100517.56;;;12.29;100.00
61645;BME280;47553;52.428;13.382;2022-09-13T03:04:11;100506.88;;;12.29;100.00
61645;BME280;47553;52.428;13.382;2022-09-13T03:06:21;100487.06;;;12.19;100.00
61645;BME280;47553;52.428;13.382;2022-09-13T03:08:24;100500.22;;;12.22;100.00
61645;BME280;47553;52.428;13.382;2022-09-13T03:10:30;100497.13;;;12.28;100.00
61645;BME280;47553;52.428;13.382;2022-09-13T03:12:53;100481.72;;;12.32;100.00
61645;BME280;47553;52.428;13.382;2022-09-13T03:15:07;100476.31;;;12.46;100.00
61645;BME280;47553;52.428;13.382;2022-09-13T03:17:15;100463.78;;;12.47;100.00
61645;BME280;47553;52.428;13.382;2022-09-13T03:19:24;100467.63;;;12.43;100.00
61645;BME280;47553;52.428;13.382;2022-09-13T03:21:54;100472.97;;;12.43;100.00
61645;BME280;47553;52.428;13.382;2022-09-13T03:24:07;100462.78;;;12.35;100.00
61645;BME280;47553;52.428;13.382;2022-09-13T03:26:22;100462.16;;;12.31;100.00
61645;BME280;47553;52.428;13.382;2022-09-13T03:28:35;100458.78;;;12.15;100.00
61645;BME280;47553;52.428;13.382;2022-09-13T03:30:43;100457.94;;;12.02;100.00
61645;BME280;47553;52.428;13.382;2022-09-13T03:32:53;100460.06;;;11.97;100.00
61645;BME280;47553;52.428;13.382;2022-09-13T03:35:03;100462.19;;;11.92;100.00
61645;BME280;47553;52.428;13.382;2022-09-13T03:37:13;100458.75;;;11.90;100.00
61645;BME280;47553;52.428;13.382;2022-09-13T03:39:25;100454.69;;;11.84;100.00
61645;BME280;47553;52.428;13.382;2022-09-13T03:41:37;100454.50;;;11.87;100.00
61645;BME280;47553;52.428;13.382;2022-09-13T03:43:44;100456.72;;;11.81;100.00
61645;BME280;47553;52.428;13.382;2022-09-13T03:45:50;100454.50;;;11.87;100.00
61645;BME280;47553;52.428;13.382;2022-09-13T03:47:53;100463.66;;;11.83;100.00
61645;BME280;47553;52.428;13.382;2022-09-13T03:49:57;100461.09;;;11.82;100.00
61645;BME280;47553;52.428;13.382;2022-09-13T03:51:58;100463.16;;;11.91;100.00
61645;BME280;47553;52.428;13.382;2022-09-13T03:54:03;100459.19;;;11.96;100.00
61645;BME280;47553;52.428;13.382;2022-09-13T03:56:12;100453.84;;;11.96;100.00
61645;BME280;47553;52.428;13.382;2022-09-13T03:58:16;100451.28;;;11.95;100.00
61645;BME280;47553;52.428;13.382;2022-09-13T04:00:19;100453.22;;;11.93;100.00
61645;BME280;47553;52.428;13.382;2022-09-13T04:02:21;100436.97;;;11.96;100.00
61645;BME280;47553;52.428;13.382;2022-09-13T04:04:23;100444.34;;;11.92;100.00
61645;BME280;47553;52.428;13.382;2022-09-13T04:06:24;100442.00;;;12.00;100.00
61645;BME280;47553;52.428;13.382;2022-09-13T04:08:26;100436.75;;;11.99;100.00
61645;BME280;47553;52.428;13.382;2022-09-13T04:10:27;100442.84;;;12.01;100.00
61645;BME280;47553;52.428;13.382;2022-09-13T04:12:30;100433.88;;;12.02;100.00
61645;BME280;47553;52.428;13.382;2022-09-13T04:14:31;100427.78;;;12.00;100.00
61645;BME280;47553;52.428;13.382;2022-09-13T04:16:33;100431.41;;;12.12;100.00
61645;BME280;47553;52.428;13.382;2022-09-13T04:18:35;100422.44;;;12.13;100.00
61645;BME280;47553;52.428;13.382;2022-09-13T04:20:36;100426.94;;;12.12;100.00
61645;BME280;47553;52.428;13.382;2022-09-13T04:22:38;100432.06;;;12.15;100.00
61645;BME280;47553;52.428;13.382;2022-09-13T04:24:39;100431.25;;;12.27;100.00
61645;BME280;47553;52.428;13.382;2022-09-13T04:26:41;100425.34;;;12.22;100.00
61645;BME280;47553;52.428;13.382;2022-09-13T04:28:44;100428.03;;;12.22;100.00
61645;BME280;47553;52.428;13.382;2022-09-13T04:30:46;100430.38;;;12.27;100.00
61645;BME280;47553;52.428;13.382;2022-09-13T04:32:48;100418.19;;;12.35;100.00
61645;BME280;47553;52.428;13.382;2022-09-13T04:34:50;100415.41;;;12.37;100.00
61645;BME280;47553;52.428;13.382;2022-09-13T04:36:51;100402.34;;;12.32;100.00
61645;BME280;47553;52.428;13.382;2022-09-13T04:38:53;100400.66;;;12.44;100.00
61645;BME280;47553;52.428;13.382;2022-09-13T04:40:55;100405.25;;;12.42;100.00
61645;BME280;47553;52.428;13.382;2022-09-13T04:42:56;100406.53;;;12.36;100.00
61645;BME280;47553;52.428;13.382;2022-09-13T04:44:59;100406.75;;;12.33;100.00
61645;BME280;47553;52.428;13.382;2022-09-13T04:47:01;100403.97;;;12.22;100.00
61645;BME280;47553;52.428;13.382;2022-09-13T04:49:02;100402.56;;;12.29;100.00
61645;BME280;47553;52.428;13.382;2022-09-13T04:51:04;100409.31;;;12.22;100.00
61645;BME280;47553;52.428;13.382;2022-09-13T04:53:06;100401.50;;;12.19;100.00
61645;BME280;47553;52.428;13.382;2022-09-13T04:55:08;100401.06;;;12.25;100.00
61645;BME280;47553;52.428;13.382;2022-09-13T04:57:09;100395.50;;;12.28;100.00
61645;BME280;47553;52.428;13.382;2022-09-13T04:59:11;100389.72;;;12.34;100.00
61645;BME280;47553;52.428;13.382;2022-09-13T05:01:14;100397.66;;;12.36;100.00
61645;BME280;47553;52.428;13.382;2022-09-13T05:03:16;100385.91;;;12.39;100.00
61645;BME280;47553;52.428;13.382;2022-09-13T05:05:17;100383.97;;;12.41;100.00
61645;BME280;47553;52.428;13.382;2022-09-13T05:07:18;100386.00;;;12.50;100.00
61645;BME280;47553;52.428;13.382;2022-09-13T05:09:20;100368.53;;;12.57;100.00
61645;BME280;47553;52.428;13.382;2022-09-13T05:11:23;100375.03;;;12.65;100.00
61645;BME280;47553;52.428;13.382;2022-09-13T05:13:25;100369.25;;;12.72;100.00
61645;BME280;47553;52.428;13.382;2022-09-13T05:15:26;100368.16;;;12.74;100.00
61645;BME280;47553;52.428;13.382;2022-09-13T05:17:30;100379.63;;;12.76;100.00
61645;BME280;47553;52.428;13.382;2022-09-13T05:19:31;100371.25;;;12.81;100.00
61645;BME280;47553;52.428;13.382;2022-09-13T05:21:33;100365.00;;;12.93;100.00
61645;BME280;47553;52.428;13.382;2022-09-13T05:23:34;100356.41;;;13.00;100.00
61645;BME280;47553;52.428;13.382;2022-09-13T05:25:36;100364.72;;;13.09;100.00
61645;BME280;47553;52.428;13.382;2022-09-13T05:27:37;100360.66;;;13.03;100.00
61645;BME280;47553;52.428;13.382;2022-09-13T05:29:39;100357.22;;;13.14;100.00
61645;BME280;47553;52.428;13.382;2022-09-13T05:31:41;100356.31;;;13.26;100.00
61645;BME280;47553;52.428;13.382;2022-09-13T05:33:46;100349.00;;;13.28;100.00
61645;BME280;47553;52.428;13.382;2022-09-13T05:35:49;100336.06;;;13.22;100.00
61645;BME280;47553;52.428;13.382;2022-09-13T05:37:50;100349.75;;;13.30;100.00
61645;BME280;47553;52.428;13.382;2022-09-13T05:39:52;100350.47;;;13.32;100.00
61645;BME280;47553;52.428;13.382;2022-09-13T05:42:12;100353.44;;;13.40;100.00
61645;BME280;47553;52.428;13.382;2022-09-13T05:44:14;100350.44;;;13.45;100.00
61645;BME280;47553;52.428;13.382;2022-09-13T05:46:17;100350.88;;;13.39;100.00
61645;BME280;47553;52.428;13.382;2022-09-13T05:48:19;100347.53;;;13.24;100.00
61645;BME280;47553;52.428;13.382;2022-09-13T05:50:22;100351.91;;;13.25;100.00
61645;BME280;47553;52.428;13.382;2022-09-13T05:52:43;100344.84;;;13.24;100.00
61645;BME280;47553;52.428;13.382;2022-09-13T05:54:44;100344.56;;;13.16;100.00
61645;BME280;47553;52.428;13.382;2022-09-13T05:56:46;100352.75;;;13.02;100.00
61645;BME280;47553;52.428;13.382;2022-09-13T05:58:48;100356.16;;;13.04;100.00
61645;BME280;47553;52.428;13.382;2022-09-13T06:00:52;100363.78;;;12.97;100.00
61645;BME280;47553;52.428;13.382;2022-09-13T06:02:54;100363.75;;;12.86;100.00
61645;BME280;47553;52.428;13.382;2022-09-13T06:04:56;100375.06;;;12.89;100.00
61645;BME280;47553;52.428;13.382;2022-09-13T06:06:59;100375.75;;;12.80;100.00
61645;BME280;47553;52.428;13.382;2022-09-13T06:09:00;100375.13;;;12.77;100.00
61645;BME280;47553;52.428;13.382;2022-09-13T06:11:02;100378.00;;;12.74;100.00
61645;BME280;47553;52.428;13.382;2022-09-13T06:13:04;100375.69;;;12.69;100.00
61645;BME280;47553;52.428;13.382;2022-09-13T06:15:07;100379.09;;;12.71;100.00
61645;BME280;47553;52.428;13.382;2022-09-13T06:17:08;100383.47;;;12.72;100.00
61645;BME280;47553;52.428;13.382;2022-09-13T06:19:10;100383.91;;;12.66;100.00
61645;BME280;47553;52.428;13.382;2022-09-13T06:21:13;100386.81;;;12.63;100.00
61645;BME280;47553;52.428;13.382;2022-09-13T06:23:16;100379.47;;;12.54;100.00
61645;BME280;47553;52.428;13.382;2022-09-13T06:25:17;100393.47;;;12.57;100.00
61645;BME280;47553;52.428;13.382;2022-09-13T06:27:19;100393.34;;;12.59;100.00
61645;BME280;47553;52.428;13.382;2022-09-13T06:29:20;100400.19;;;12.63;100.00
61645;BME280;47553;52.428;13.382;2022-09-13T06:31:22;100406.81;;;12.70;100.00
61645;BME280;47553;52.428;13.382;2022-09-13T06:33:24;100394.19;;;12.72;100.00
61645;BME280;47553;52.428;13.382;2022-09-13T06:35:25;100396.19;;;12.81;100.00
61645;BME280;47553;52.428;13.382;2022-09-13T06:37:27;100391.69;;;12.82;100.00
61645;BME280;47553;52.428;13.382;2022-09-13T06:39:30;100385.31;;;12.95;100.00
61645;BME280;47553;52.428;13.382;2022-09-13T06:41:31;100401.22;;;12.86;100.00
61645;BME280;47553;52.428;13.382;2022-09-13T06:43:33;100403.31;;;12.93;100.00
61645;BME280;47553;52.428;13.382;2022-09-13T06:45:35;100399.22;;;13.00;100.00
61645;BME280;47553;52.428;13.382;2022-09-13T06:47:36;100390.22;;;13.02;100.00
61645;BME280;47553;52.428;13.382;2022-09-13T06:49:37;100386.06;;;12.97;100.00
61645;BME280;47553;52.428;13.382;2022-09-13T06:51:39;100372.47;;;13.00;100.00
61645;BME280;47553;52.428;13.382;2022-09-13T06:53:41;100377.06;;;12.98;100.00
61645;BME280;47553;52.428;13.382;2022-09-13T06:55:44;100373.31;;;13.01;100.00
61645;BME280;47553;52.428;13.382;2022-09-13T06:57:46;100361.53;;;13.04;100.00
61645;BME280;47553;52.428;13.382;2022-09-13T06:59:47;100363.31;;;13.16;100.00
61645;BME280;47553;52.428;13.382;2022-09-13T07:01:49;100367.94;;;13.14;100.00
61645;BME280;47553;52.428;13.382;2022-09-13T07:03:52;100371.13;;;13.19;100.00
61645;BME280;47553;52.428;13.382;2022-09-13T07:05:54;100345.34;;;13.29;100.00
61645;BME280;47553;52.428;13.382;2022-09-13T07:07:55;100338.97;;;13.43;100.00
61645;BME280;47553;52.428;13.382;2022-09-13T07:09:57;100344.63;;;13.62;100.00
61645;BME280;47553;52.428;13.382;2022-09-13T07:12:00;100354.53;;;13.73;100.00
61645;BME280;47553;52.428;13.382;2022-09-13T07:14:01;100354.28;;;13.76;100.00
61645;BME280;47553;52.428;13.382;2022-09-13T07:16:05;100348.00;;;13.88;100.00
61645;BME280;47553;52.428;13.382;2022-09-13T07:18:06;100347.78;;;13.91;100.00
61645;BME280;47553;52.428;13.382;2022-09-13T07:20:08;100348.38;;;13.94;100.00
61645;BME280;47553;52.428;13.382;2022-09-13T07:22:09;100343.16;;;14.04;100.00
61645;BME280;47553;52.428;13.382;2022-09-13T07:24:11;100340.97;;;14.09;100.00
61645;BME280;47553;52.428;13.382;2022-09-13T07:26:13;100340.72;;;14.12;100.00
61645;BME280;47553;52.428;13.382;2022-09-13T07:28:16;100338.28;;;14.20;100.00
61645;BME280;47553;52.428;13.382;2022-09-13T07:30:17;100354.25;;;14.33;100.00
61645;BME280;47553;52.428;13.382;2022-09-13T07:32:18;100342.66;;;14.33;100.00
61645;BME280;47553;52.428;13.382;2022-09-13T07:34:21;100339.00;;;14.34;100.00
61645;BME280;47553;52.428;13.382;2022-09-13T07:36:23;100336.56;;;14.31;100.00
61645;BME280;47553;52.428;13.382;2022-09-13T07:38:26;100333.88;;;14.31;100.00
61645;BME280;47553;52.428;13.382;2022-09-13T07:40:27;100333.88;;;14.42;100.00
61645;BME280;47553;52.428;13.382;2022-09-13T07:42:28;100343.38;;;14.46;100.00
61645;BME280;47553;52.428;13.382;2022-09-13T07:44:32;100326.91;;;14.50;100.00
61645;BME280;47553;52.428;13.382;2022-09-13T07:46:34;100333.78;;;14.66;100.00
61645;BME280;47553;52.428;13.382;2022-09-13T07:48:38;100333.16;;;14.73;100.00
61645;BME280;47553;52.428;13.382;2022-09-13T07:50:39;100322.66;;;14.81;100.00
61645;BME280;47553;52.428;13.382;2022-09-13T07:52:41;100323.84;;;14.88;100.00
61645;BME280;47553;52.428;13.382;2022-09-13T07:54:42;100328.03;;;14.70;100.00
61645;BME280;47553;52.428;13.382;2022-09-13T07:56:44;100329.38;;;14.76;100.00
61645;BME280;47553;52.428;13.382;2022-09-13T07:58:47;100327.50;;;14.87;100.00
61645;BME280;47553;52.428;13.382;2022-09-13T08:00:50;100332.81;;;15.10;100.00
61645;BME280;47553;52.428;13.382;2022-09-13T08:02:52;100336.09;;;15.13;100.00
61645;BME280;47553;52.428;13.382;2022-09-13T08:04:53;100338.59;;;15.26;100.00
61645;BME280;47553;52.428;13.382;2022-09-13T08:06:55;100332.88;;;15.19;100.00
61645;BME280;47553;52.428;13.382;2022-09-13T08:08:56;100341.25;;;15.37;100.00
61645;BME280;47553;52.428;13.382;2022-09-13T08:10:59;100338.53;;;15.48;100.00
61645;BME280;47553;52.428;13.382;2022-09-13T08:13:01;100333.47;;;15.23;100.00
61645;BME280;47553;52.428;13.382;2022-09-13T08:15:03;100326.84;;;15.38;100.00
61645;BME280;47553;52.428;13.382;2022-09-13T08:17:05;100323.44;;;15.36;100.00
61645;BME280;47553;52.428;13.382;2022-09-13T08:19:11;100326.59;;;15.41;100.00
61645;BME280;47553;52.428;13.382;2022-09-13T08:21:13;100321.97;;;15.32;100.00
61645;BME280;47553;52.428;13.382;2022-09-13T08:23:15;100321.72;;;15.35;100.00
61645;BME280;47553;52.428;13.382;2022-09-13T08:25:17;100317.38;;;15.23;100.00
61645;BME280;47553;52.428;13.382;2022-09-13T08:27:18;100318.47;;;15.20;100.00
61645;BME280;47553;52.428;13.382;2022-09-13T08:29:20;100322.94;;;15.31;100.00
61645;BME280;47553;52.428;13.382;2022-09-13T08:31:21;100326.91;;;15.16;100.00
61645;BME280;47553;52.428;13.382;2022-09-13T08:33:24;100339.63;;;15.14;100.00
61645;BME280;47553;52.428;13.382;2022-09-13T08:35:26;100330.31;;;15.18;100.00
61645;BME280;47553;52.428;13.382;2022-09-13T08:37:27;100333.22;;;15.26;100.00
61645;BME280;47553;52.428;13.382;2022-09-13T08:39:28;100333.22;;;15.26;100.00
61645;BME280;47553;52.428;13.382;2022-09-13T08:41:50;100342.78;;;15.19;100.00
61645;BME280;47553;52.428;13.382;2022-09-13T08:44:00;100333.47;;;15.23;100.00
61645;BME280;47553;52.428;13.382;2022-09-13T08:46:05;100326.34;;;15.33;100.00
61645;BME280;47553;52.428;13.382;2022-09-13T08:48:11;100344.16;;;15.45;100.00
61645;BME280;47553;52.428;13.382;2022-09-13T08:50:20;100345.59;;;15.49;100.00
61645;BME280;47553;52.428;13.382;2022-09-13T08:52:23;100344.22;;;15.55;100.00
61645;BME280;47553;52.428;13.382;2022-09-13T08:54:27;100336.28;;;15.53;100.00
61645;BME280;47553;52.428;13.382;2022-09-13T08:56:36;100332.06;;;15.72;100.00
61645;BME280;47553;52.428;13.382;2022-09-13T08:58:57;100334.88;;;15.91;100.00
61645;BME280;47553;52.428;13.382;2022-09-13T09:01:07;100320.88;;;15.97;100.00
61645;BME280;47553;52.428;13.382;2022-09-13T09:03:19;100327.94;;;16.19;100.00
61645;BME280;47553;52.428;13.382;2022-09-13T09:05:24;100324.34;;;16.39;100.00
61645;BME280;47553;52.428;13.382;2022-09-13T09:07:30;100320.63;;;16.31;100.00
61645;BME280;47553;52.428;13.382;2022-09-13T09:09:36;100317.84;;;16.42;100.00
61645;BME280;47553;52.428;13.382;2022-09-13T09:11:43;100316.69;;;16.35;100.00
61645;BME280;47553;52.428;13.382;2022-09-13T09:13:52;100298.34;;;16.59;100.00
61645;BME280;47553;52.428;13.382;2022-09-13T09:15:57;100302.53;;;16.83;100.00
61645;BME280;47553;52.428;13.382;2022-09-13T09:18:03;100300.88;;;17.01;100.00
61645;BME280;47553;52.428;13.382;2022-09-13T09:20:15;100293.06;;;17.17;100.00
61645;BME280;47553;52.428;13.382;2022-09-13T09:22:22;100285.13;;;16.96;100.00
61645;BME280;47553;52.428;13.382;2022-09-13T09:24:25;100295.75;;;16.98;100.00
61645;BME280;47553;52.428;13.382;2022-09-13T09:26:29;100301.84;;;17.00;100.00
61645;BME280;47553;52.428;13.382;2022-09-13T09:28:31;100301.28;;;17.06;100.00
61645;BME280;47553;52.428;13.382;2022-09-13T09:30:50;100310.22;;;17.06;100.00
61645;BME280;47553;52.428;13.382;2022-09-13T09:33:07;100307.25;;;17.09;100.00
61645;BME280;47553;52.428;13.382;2022-09-13T09:35:15;100318.03;;;17.29;100.00
61645;BME280;47553;52.428;13.382;2022-09-13T09:37:23;100311.50;;;17.31;100.00
61645;BME280;47553;52.428;13.382;2022-09-13T09:39:28;100306.25;;;17.39;100.00
61645;BME280;47553;52.428;13.382;2022-09-13T09:41:31;100317.75;;;17.41;100.00
61645;BME280;47553;52.428;13.382;2022-09-13T09:43:37;100305.53;;;17.47;100.00
61645;BME280;47553;52.428;13.382;2022-09-13T09:45:40;100306.66;;;17.54;100.00
61645;BME280;47553;52.428;13.382;2022-09-13T09:47:45;100305.56;;;17.66;100.00
61645;BME280;47553;52.428;13.382;2022-09-13T09:49:51;100311.22;;;17.73;100.00
61645;BME280;47553;52.428;13.382;2022-09-13T09:51:56;100308.88;;;17.97;99.93
61645;BME280;47553;52.428;13.382;2022-09-13T09:54:01;100310.09;;;18.13;98.68
61645;BME280;47553;52.428;13.382;2022-09-13T09:56:10;100305.06;;;18.27;98.13
61645;BME280;47553;52.428;13.382;2022-09-13T09:58:13;100309.16;;;18.31;97.81
61645;BME280;47553;52.428;13.382;2022-09-13T10:00:16;100300.91;;;18.43;97.56
61645;BME280;47553;52.428;13.382;2022-09-13T10:02:20;100302.75;;;18.42;96.40
61645;BME280;47553;52.428;13.382;2022-09-13T10:04:23;100298.28;;;18.60;94.46
61645;BME280;47553;52.428;13.382;2022-09-13T10:06:25;100299.47;;;18.76;94.35
61645;BME280;47553;52.428;13.382;2022-09-13T10:08:30;100284.81;;;18.96;92.74
61645;BME280;47553;52.428;13.382;2022-09-13T10:10:37;100285.59;;;19.06;92.72
61645;BME280;47553;52.428;13.382;2022-09-13T10:12:40;100278.66;;;19.21;89.79
61645;BME280;47553;52.428;13.382;2022-09-13T10:14:42;100285.41;;;19.61;89.74
61645;BME280;47553;52.428;13.382;2022-09-13T10:16:46;100286.53;;;19.76;87.69
61645;BME280;47553;52.428;13.382;2022-09-13T10:18:47;100291.91;;;19.68;88.41
61645;BME280;47553;52.428;13.382;2022-09-13T10:21:00;100284.16;;;19.73;89.07
61645;BME280;47553;52.428;13.382;2022-09-13T10:23:10;100282.13;;;19.75;87.59
61645;BME280;47553;52.428;13.382;2022-09-13T10:25:13;100290.19;;;19.67;87.46
61645;BME280;47553;52.428;13.382;2022-09-13T10:27:21;100284.16;;;19.73;88.38
61645;BME280;47553;52.428;13.382;2022-09-13T10:29:25;100283.13;;;19.74;88.22
61645;BME280;47553;52.428;13.382;2022-09-13T10:31:31;100277.81;;;19.82;89.55
61645;BME280;47553;52.428;13.382;2022-09-13T10:33:36;100278.66;;;19.83;87.86
61645;BME280;47553;52.428;13.382;2022-09-13T10:35:38;100280.06;;;19.69;88.42
61645;BME280;47553;52.428;13.382;2022-09-13T10:37:41;100277.69;;;19.66;88.72
61645;BME280;47553;52.428;13.382;2022-09-13T10:39:55;100272.16;;;19.76;89.10